sensor_id;sensor_type;location;lat;lon;timestamp;temperature;humidity
71096;DHT22;58753;49.440;11.126;2023-03-01T00:01:25;-1.34;73.03
71096;DHT22;58753;49.440;11.126;2023-03-01T00:03:51;-1.38;72.94
71096;DHT22;58753;49.440;11.126;2023-03-01T00:06:18;-1.40;72.93
71096;DHT22;58753;49.440;11.126;2023-03-01T00:08:43;-1.40;72.94
71096;DHT22;58753;49.440;11.126;2023-03-01T00:11:15;-1.43;72.89
71096;DHT22;58753;49.440;11.126;2023-03-01T00:13:43;-1.43;72.94
71096;DHT22;58753;49.440;11.126;2023-03-01T00:16:14;-1.47;73.13
71096;DHT22;58753;49.440;11.126;2023-03-01T00:18:40;-1.50;73.07
71096;DHT22;58753;49.440;11.126;2023-03-01T00:21:06;-1.46;73.26
71096;DHT22;58753;49.440;11.126;2023-03-01T00:23:33;-1.49;73.26
71096;DHT22;58753;49.440;11.126;2023-03-01T00:25:59;-1.46;73.23
71096;DHT22;58753;49.440;11.126;2023-03-01T00:28:24;-1.49;73.30
71096;DHT22;58753;49.440;11.126;2023-03-01T00:30:50;-1.49;73.27
71096;DHT22;58753;49.440;11.126;2023-03-01T00:33:15;-1.52;73.28
71096;DHT22;58753;49.440;11.126;2023-03-01T00:35:41;-1.49;73.33
71096;DHT22;58753;49.440;11.126;2023-03-01T00:38:06;-1.50;73.38
71096;DHT22;58753;49.440;11.126;2023-03-01T00:40:34;-1.50;73.46
71096;DHT22;58753;49.440;11.126;2023-03-01T00:43:00;-1.49;73.41
71096;DHT22;58753;49.440;11.126;2023-03-01T00:45:25;-1.47;73.36
71096;DHT22;58753;49.440;11.126;2023-03-01T00:47:51;-1.50;73.34
71096;DHT22;58753;49.440;11.126;2023-03-01T00:50:17;-1.47;73.41
71096;DHT22;58753;49.440;11.126;2023-03-01T00:52:43;-1.49;73.43
71096;DHT22;58753;49.440;11.126;2023-03-01T00:55:09;-1.47;73.39
71096;DHT22;58753;49.440;11.126;2023-03-01T00:57:34;-1.47;73.41
71096;DHT22;58753;49.440;11.126;2023-03-01T01:00:00;-1.50;73.40
71096;DHT22;58753;49.440;11.126;2023-03-01T01:02:25;-1.52;73.41
71096;DHT22;58753;49.440;11.126;2023-03-01T01:04:51;-1.49;73.43
71096;DHT22;58753;49.440;11.126;2023-03-01T01:07:17;-1.45;73.43
71096;DHT22;58753;49.440;11.126;2023-03-01T01:09:42;-1.46;73.29
71096;DHT22;58753;49.440;11.126;2023-03-01T01:12:08;-1.46;73.26
71096;DHT22;58753;49.440;11.126;2023-03-01T01:14:34;-1.43;73.20
71096;DHT22;58753;49.440;11.126;2023-03-01T01:16:59;-1.47;73.19
71096;DHT22;58753;49.440;11.126;2023-03-01T01:19:26;-1.46;73.20
71096;DHT22;58753;49.440;11.126;2023-03-01T01:21:51;-1.52;73.12
71096;DHT22;58753;49.440;11.126;2023-03-01T01:24:18;-1.52;73.07
71096;DHT22;58753;49.440;11.126;2023-03-01T01:26:44;-1.53;73.11
71096;DHT22;58753;49.440;11.126;2023-03-01T01:29:11;-1.55;73.19
71096;DHT22;58753;49.440;11.126;2023-03-01T01:31:38;-1.55;73.22
71096;DHT22;58753;49.440;11.126;2023-03-01T01:34:06;-1.57;73.20
71096;DHT22;58753;49.440;11.126;2023-03-01T01:36:32;-1.52;73.18
71096;DHT22;58753;49.440;11.126;2023-03-01T01:38:59;-1.55;73.09
71096;DHT22;58753;49.440;11.126;2023-03-01T01:41:27;-1.55;73.12
71096;DHT22;58753;49.440;11.126;2023-03-01T01:44:13;-1.57;73.11
71096;DHT22;58753;49.440;11.126;2023-03-01T01:46:41;-1.53;73.23
71096;DHT22;58753;49.440;11.126;2023-03-01T01:51:50;-1.59;73.13
71096;DHT22;58753;49.440;11.126;2023-03-01T01:54:27;-1.59;73.13
71096;DHT22;58753;49.440;11.126;2023-03-01T01:56:59;-1.60;73.16
71096;DHT22;58753;49.440;11.126;2023-03-01T01:59:27;-1.62;73.18
71096;DHT22;58753;49.440;11.126;2023-03-01T02:01:54;-1.62;73.16
71096;DHT22;58753;49.440;11.126;2023-03-01T02:04:20;-1.62;73.24
71096;DHT22;58753;49.440;11.126;2023-03-01T02:06:51;-1.66;73.24
71096;DHT22;58753;49.440;11.126;2023-03-01T02:09:20;-1.64;73.24
71096;DHT22;58753;49.440;11.126;2023-03-01T02:11:47;-1.67;73.23
71096;DHT22;58753;49.440;11.126;2023-03-01T02:14:16;-1.70;73.26
71096;DHT22;58753;49.440;11.126;2023-03-01T02:16:41;-1.69;73.40
71096;DHT22;58753;49.440;11.126;2023-03-01T02:19:09;-1.73;73.38
71096;DHT22;58753;49.440;11.126;2023-03-01T02:21:50;-1.71;73.43
71096;DHT22;58753;49.440;11.126;2023-03-01T02:27:00;-1.83;73.51
71096;DHT22;58753;49.440;11.126;2023-03-01T02:29:26;-1.81;73.51
71096;DHT22;58753;49.440;11.126;2023-03-01T02:31:54;-1.80;73.59
71096;DHT22;58753;49.440;11.126;2023-03-01T02:34:23;-1.84;73.61
71096;DHT22;58753;49.440;11.126;2023-03-01T02:39:55;-1.87;73.80
71096;DHT22;58753;49.440;11.126;2023-03-01T02:42:27;-1.91;73.81
71096;DHT22;58753;49.440;11.126;2023-03-01T02:44:53;-1.90;73.94
71096;DHT22;58753;49.440;11.126;2023-03-01T02:47:19;-1.93;73.92
71096;DHT22;58753;49.440;11.126;2023-03-01T02:49:44;-1.93;74.07
71096;DHT22;58753;49.440;11.126;2023-03-01T02:57:30;-2.01;74.26
71096;DHT22;58753;49.440;11.126;2023-03-01T02:59:57;-2.04;74.30
71096;DHT22;58753;49.440;11.126;2023-03-01T03:02:28;-2.05;74.36
71096;DHT22;58753;49.440;11.126;2023-03-01T03:05:14;-2.05;74.54
71096;DHT22;58753;49.440;11.126;2023-03-01T03:07:43;-2.11;74.56
71096;DHT22;58753;49.440;11.126;2023-03-01T03:10:21;-2.10;74.70
71096;DHT22;58753;49.440;11.126;2023-03-01T03:12:55;-2.12;74.74
71096;DHT22;58753;49.440;11.126;2023-03-01T03:15:22;-2.11;74.83
71096;DHT22;58753;49.440;11.126;2023-03-01T03:17:48;-2.14;74.93
71096;DHT22;58753;49.440;11.126;2023-03-01T03:20:16;-2.14;75.00
71096;DHT22;58753;49.440;11.126;2023-03-01T03:22:45;-2.14;75.09
71096;DHT22;58753;49.440;11.126;2023-03-01T03:25:11;-2.11;75.13
71096;DHT22;58753;49.440;11.126;2023-03-01T03:27:38;-2.12;75.13
71096;DHT22;58753;49.440;11.126;2023-03-01T03:30:05;-2.10;75.13
71096;DHT22;58753;49.440;11.126;2023-03-01T03:32:35;-2.10;75.07
71096;DHT22;58753;49.440;11.126;2023-03-01T03:35:01;-2.10;75.14
71096;DHT22;58753;49.440;11.126;2023-03-01T03:37:26;-2.10;75.10
71096;DHT22;58753;49.440;11.126;2023-03-01T03:40:14;-2.07;75.11
71096;DHT22;58753;49.440;11.126;2023-03-01T03:42:40;-2.05;75.14
71096;DHT22;58753;49.440;11.126;2023-03-01T03:45:06;-2.07;75.07
71096;DHT22;58753;49.440;11.126;2023-03-01T03:47:32;-2.07;75.08
71096;DHT22;58753;49.440;11.126;2023-03-01T03:49:57;-2.10;75.03
71096;DHT22;58753;49.440;11.126;2023-03-01T03:52:23;-2.07;75.00
71096;DHT22;58753;49.440;11.126;2023-03-01T03:54:48;-2.08;74.95
71096;DHT22;58753;49.440;11.126;2023-03-01T03:57:14;-2.08;74.99
71096;DHT22;58753;49.440;11.126;2023-03-01T03:59:39;-2.07;74.97
71096;DHT22;58753;49.440;11.126;2023-03-01T04:02:04;-2.10;74.91
71096;DHT22;58753;49.440;11.126;2023-03-01T04:04:30;-2.10;74.82
71096;DHT22;58753;49.440;11.126;2023-03-01T04:06:56;-2.11;74.91
71096;DHT22;58753;49.440;11.126;2023-03-01T04:09:21;-2.11;74.87
71096;DHT22;58753;49.440;11.126;2023-03-01T04:11:46;-2.11;74.89
71096;DHT22;58753;49.440;11.126;2023-03-01T04:14:12;-2.14;74.84
71096;DHT22;58753;49.440;11.126;2023-03-01T04:16:37;-2.12;74.81
71096;DHT22;58753;49.440;11.126;2023-03-01T04:19:02;-2.15;74.78
71096;DHT22;58753;49.440;11.126;2023-03-01T04:21:28;-2.17;74.82
71096;DHT22;58753;49.440;11.126;2023-03-01T04:23:53;-2.20;74.79
71096;DHT22;58753;49.440;11.126;2023-03-01T04:26:19;-2.22;74.75
71096;DHT22;58753;49.440;11.126;2023-03-01T04:28:45;-2.24;74.86
71096;DHT22;58753;49.440;11.126;2023-03-01T04:31:13;-2.25;74.84
71096;DHT22;58753;49.440;11.126;2023-03-01T04:33:42;-2.28;74.92
71096;DHT22;58753;49.440;11.126;2023-03-01T04:36:11;-2.32;74.95
71096;DHT22;58753;49.440;11.126;2023-03-01T04:38:37;-2.34;75.03
71096;DHT22;58753;49.440;11.126;2023-03-01T04:41:07;-2.34;74.99
71096;DHT22;58753;49.440;11.126;2023-03-01T04:43:34;-2.34;75.10
71096;DHT22;58753;49.440;11.126;2023-03-01T04:46:08;-2.37;75.05
71096;DHT22;58753;49.440;11.126;2023-03-01T04:48:35;-2.38;75.09
71096;DHT22;58753;49.440;11.126;2023-03-01T04:51:02;-2.40;75.21
71096;DHT22;58753;49.440;11.126;2023-03-01T04:53:27;-2.40;75.19
71096;DHT22;58753;49.440;11.126;2023-03-01T04:55:54;-2.44;75.15
71096;DHT22;58753;49.440;11.126;2023-03-01T04:58:22;-2.45;75.14
71096;DHT22;58753;49.440;11.126;2023-03-01T05:00:47;-2.46;75.35
71096;DHT22;58753;49.440;11.126;2023-03-01T05:03:13;-2.48;75.37
71096;DHT22;58753;49.440;11.126;2023-03-01T05:05:44;-2.49;75.44
71096;DHT22;58753;49.440;11.126;2023-03-01T05:08:09;-2.51;75.52
71096;DHT22;58753;49.440;11.126;2023-03-01T05:10:44;-2.53;75.56
71096;DHT22;58753;49.440;11.126;2023-03-01T05:13:11;-2.52;75.63
71096;DHT22;58753;49.440;11.126;2023-03-01T05:15:38;-2.52;75.61
71096;DHT22;58753;49.440;11.126;2023-03-01T05:18:04;-2.56;75.67
71096;DHT22;58753;49.440;11.126;2023-03-01T05:20:37;-2.58;75.68
71096;DHT22;58753;49.440;11.126;2023-03-01T05:23:03;-2.58;75.79
71096;DHT22;58753;49.440;11.126;2023-03-01T05:25:31;-2.55;75.95
71096;DHT22;58753;49.440;11.126;2023-03-01T05:27:59;-2.58;75.92
71096;DHT22;58753;49.440;11.126;2023-03-01T05:30:32;-2.59;75.88
71096;DHT22;58753;49.440;11.126;2023-03-01T05:32:58;-2.62;75.88
71096;DHT22;58753;49.440;11.126;2023-03-01T05:35:23;-2.62;76.02
71096;DHT22;58753;49.440;11.126;2023-03-01T05:37:49;-2.61;75.99
71096;DHT22;58753;49.440;11.126;2023-03-01T05:40:18;-2.66;75.99
71096;DHT22;58753;49.440;11.126;2023-03-01T05:42:45;-2.65;75.98
71096;DHT22;58753;49.440;11.126;2023-03-01T05:45:11;-2.69;76.01
71096;DHT22;58753;49.440;11.126;2023-03-01T05:47:41;-2.70;76.17
71096;DHT22;58753;49.440;11.126;2023-03-01T05:50:21;-2.70;76.12
71096;DHT22;58753;49.440;11.126;2023-03-01T05:52:51;-2.70;76.22
71096;DHT22;58753;49.440;11.126;2023-03-01T05:55:19;-2.73;76.28
71096;DHT22;58753;49.440;11.126;2023-03-01T05:57:45;-2.72;76.30
71096;DHT22;58753;49.440;11.126;2023-03-01T06:00:11;-2.75;76.30
71096;DHT22;58753;49.440;11.126;2023-03-01T06:02:38;-2.75;76.35
71096;DHT22;58753;49.440;11.126;2023-03-01T06:05:05;-2.72;76.47
71096;DHT22;58753;49.440;11.126;2023-03-01T06:07:31;-2.68;76.55
71096;DHT22;58753;49.440;11.126;2023-03-01T06:09:56;-2.65;76.60
71096;DHT22;58753;49.440;11.126;2023-03-01T06:12:22;-2.63;76.61
71096;DHT22;58753;49.440;11.126;2023-03-01T06:14:47;-2.61;76.60
71096;DHT22;58753;49.440;11.126;2023-03-01T06:17:13;-2.56;76.62
71096;DHT22;58753;49.440;11.126;2023-03-01T06:19:38;-2.53;76.55
71096;DHT22;58753;49.440;11.126;2023-03-01T06:22:04;-2.51;76.44
71096;DHT22;58753;49.440;11.126;2023-03-01T06:24:29;-2.49;76.44
71096;DHT22;58753;49.440;11.126;2023-03-01T06:26:54;-2.48;76.43
71096;DHT22;58753;49.440;11.126;2023-03-01T06:29:21;-2.48;76.32
71096;DHT22;58753;49.440;11.126;2023-03-01T06:31:48;-2.46;76.30
71096;DHT22;58753;49.440;11.126;2023-03-01T06:34:13;-2.45;76.36
71096;DHT22;58753;49.440;11.126;2023-03-01T06:36:39;-2.44;76.31
71096;DHT22;58753;49.440;11.126;2023-03-01T06:39:04;-2.37;76.43
71096;DHT22;58753;49.440;11.126;2023-03-01T06:41:31;-2.31;76.58
71096;DHT22;58753;49.440;11.126;2023-03-01T06:43:56;-2.25;76.50
71096;DHT22;58753;49.440;11.126;2023-03-01T06:46:21;-2.21;76.29
71096;DHT22;58753;49.440;11.126;2023-03-01T06:48:47;-2.15;76.22
71096;DHT22;58753;49.440;11.126;2023-03-01T06:51:12;-2.11;76.09
71096;DHT22;58753;49.440;11.126;2023-03-01T06:53:38;-2.11;76.02
71096;DHT22;58753;49.440;11.126;2023-03-01T06:56:03;-2.07;75.91
71096;DHT22;58753;49.440;11.126;2023-03-01T06:58:29;-2.01;75.85
71096;DHT22;58753;49.440;11.126;2023-03-01T07:00:54;-1.95;75.82
71096;DHT22;58753;49.440;11.126;2023-03-01T07:03:20;-1.93;75.65
71096;DHT22;58753;49.440;11.126;2023-03-01T07:05:48;-1.89;75.61
71096;DHT22;58753;49.440;11.126;2023-03-01T07:08:14;-1.84;75.49
71096;DHT22;58753;49.440;11.126;2023-03-01T07:10:39;-1.80;75.47
71096;DHT22;58753;49.440;11.126;2023-03-01T07:13:04;-1.74;75.26
71096;DHT22;58753;49.440;11.126;2023-03-01T07:15:32;-1.69;75.11
71096;DHT22;58753;49.440;11.126;2023-03-01T07:17:58;-1.63;75.05
71096;DHT22;58753;49.440;11.126;2023-03-01T07:20:23;-1.59;74.91
71096;DHT22;58753;49.440;11.126;2023-03-01T07:22:51;-1.53;74.79
71096;DHT22;58753;49.440;11.126;2023-03-01T07:25:17;-1.49;74.68
71096;DHT22;58753;49.440;11.126;2023-03-01T07:27:42;-1.46;74.53
71096;DHT22;58753;49.440;11.126;2023-03-01T07:30:08;-1.39;74.38
71096;DHT22;58753;49.440;11.126;2023-03-01T07:32:34;-1.35;74.22
71096;DHT22;58753;49.440;11.126;2023-03-01T07:34:59;-1.31;74.02
71096;DHT22;58753;49.440;11.126;2023-03-01T07:37:24;-1.26;73.93
71096;DHT22;58753;49.440;11.126;2023-03-01T07:39:50;-1.19;73.81
71096;DHT22;58753;49.440;11.126;2023-03-01T07:42:15;-1.15;73.64
71096;DHT22;58753;49.440;11.126;2023-03-01T07:44:40;-1.12;73.39
71096;DHT22;58753;49.440;11.126;2023-03-01T07:47:06;-1.06;73.23
71096;DHT22;58753;49.440;11.126;2023-03-01T07:49:31;-0.98;73.18
71096;DHT22;58753;49.440;11.126;2023-03-01T07:51:57;-0.91;72.94
71096;DHT22;58753;49.440;11.126;2023-03-01T07:54:22;-0.87;72.77
71096;DHT22;58753;49.440;11.126;2023-03-01T07:56:48;-0.81;72.65
71096;DHT22;58753;49.440;11.126;2023-03-01T07:59:13;-0.75;72.51
71096;DHT22;58753;49.440;11.126;2023-03-01T08:01:39;-0.67;72.47
71096;DHT22;58753;49.440;11.126;2023-03-01T08:04:04;-0.60;72.24
71096;DHT22;58753;49.440;11.126;2023-03-01T08:06:33;-0.57;72.02
71096;DHT22;58753;49.440;11.126;2023-03-01T08:08:59;-0.49;71.87
71096;DHT22;58753;49.440;11.126;2023-03-01T08:11:24;-0.44;71.75
71096;DHT22;58753;49.440;11.126;2023-03-01T08:13:49;-0.36;71.54
71096;DHT22;58753;49.440;11.126;2023-03-01T08:16:15;-0.26;71.37
71096;DHT22;58753;49.440;11.126;2023-03-01T08:18:42;-0.20;71.14
71096;DHT22;58753;49.440;11.126;2023-03-01T08:21:10;-0.13;70.93
71096;DHT22;58753;49.440;11.126;2023-03-01T08:23:36;-0.07;70.78
71096;DHT22;58753;49.440;11.126;2023-03-01T08:28:30;0.07;70.28
71096;DHT22;58753;49.440;11.126;2023-03-01T08:30:55;0.15;70.04
71096;DHT22;58753;49.440;11.126;2023-03-01T08:33:20;0.18;69.77
71096;DHT22;58753;49.440;11.126;2023-03-01T08:35:46;0.24;69.55
71096;DHT22;58753;49.440;11.126;2023-03-01T08:38:11;0.31;69.48
71096;DHT22;58753;49.440;11.126;2023-03-01T08:41:09;0.42;69.14
71096;DHT22;58753;49.440;11.126;2023-03-01T08:43:34;0.53;68.96
71096;DHT22;58753;49.440;11.126;2023-03-01T08:45:59;0.65;68.47
71096;DHT22;58753;49.440;11.126;2023-03-01T08:48:27;0.69;68.13
71096;DHT22;58753;49.440;11.126;2023-03-01T08:50:53;0.73;67.83
71096;DHT22;58753;49.440;11.126;2023-03-01T08:53:18;0.83;67.54
71096;DHT22;58753;49.440;11.126;2023-03-01T08:55:43;0.90;67.14
71096;DHT22;58753;49.440;11.126;2023-03-01T08:58:09;0.96;66.77
71096;DHT22;58753;49.440;11.126;2023-03-01T09:00:34;1.01;66.44
71096;DHT22;58753;49.440;11.126;2023-03-01T09:03:01;1.06;66.02
71096;DHT22;58753;49.440;11.126;2023-03-01T09:05:26;1.08;65.69
71096;DHT22;58753;49.440;11.126;2023-03-01T09:07:52;1.15;65.50
71096;DHT22;58753;49.440;11.126;2023-03-01T09:10:17;1.24;65.28
71096;DHT22;58753;49.440;11.126;2023-03-01T09:12:43;1.30;65.01
71096;DHT22;58753;49.440;11.126;2023-03-01T09:15:09;1.34;64.62
71096;DHT22;58753;49.440;11.126;2023-03-01T09:17:34;1.38;64.47
71096;DHT22;58753;49.440;11.126;2023-03-01T09:20:00;1.50;64.31
71096;DHT22;58753;49.440;11.126;2023-03-01T09:22:25;1.55;63.92
71096;DHT22;58753;49.440;11.126;2023-03-01T09:24:51;1.55;63.69
71096;DHT22;58753;49.440;11.126;2023-03-01T09:27:17;1.68;63.72
71096;DHT22;58753;49.440;11.126;2023-03-01T09:29:44;1.69;63.33
71096;DHT22;58753;49.440;11.126;2023-03-01T09:32:10;1.74;62.96
71096;DHT22;58753;49.440;11.126;2023-03-01T09:34:36;1.79;62.91
71096;DHT22;58753;49.440;11.126;2023-03-01T09:37:21;1.85;62.57
71096;DHT22;58753;49.440;11.126;2023-03-01T09:39:47;1.91;62.38
71096;DHT22;58753;49.440;11.126;2023-03-01T09:42:12;1.98;62.04
71096;DHT22;58753;49.440;11.126;2023-03-01T09:44:46;2.03;62.01
71096;DHT22;58753;49.440;11.126;2023-03-01T09:47:18;2.09;61.83
71096;DHT22;58753;49.440;11.126;2023-03-01T09:49:53;2.15;61.63
71096;DHT22;58753;49.440;11.126;2023-03-01T09:55:08;2.36;61.09
71096;DHT22;58753;49.440;11.126;2023-03-01T09:57:47;2.42;60.78
71096;DHT22;58753;49.440;11.126;2023-03-01T10:00:26;2.49;60.48
71096;DHT22;58753;49.440;11.126;2023-03-01T10:06:21;2.73;60.03
71096;DHT22;58753;49.440;11.126;2023-03-01T10:11:32;2.84;59.51
71096;DHT22;58753;49.440;11.126;2023-03-01T10:19:12;3.08;58.93
71096;DHT22;58753;49.440;11.126;2023-03-01T10:21:43;3.15;58.70
71096;DHT22;58753;49.440;11.126;2023-03-01T10:24:18;3.28;58.41
71096;DHT22;58753;49.440;11.126;2023-03-01T10:26:57;3.36;58.16
71096;DHT22;58753;49.440;11.126;2023-03-01T10:29:30;3.48;57.89
71096;DHT22;58753;49.440;11.126;2023-03-01T10:31:57;3.58;57.68
71096;DHT22;58753;49.440;11.126;2023-03-01T10:34:34;3.70;57.45
71096;DHT22;58753;49.440;11.126;2023-03-01T10:37:14;3.80;57.20
71096;DHT22;58753;49.440;11.126;2023-03-01T10:40:04;3.89;57.08
71096;DHT22;58753;49.440;11.126;2023-03-01T10:42:39;4.06;56.94
71096;DHT22;58753;49.440;11.126;2023-03-01T10:45:38;4.18;56.52
71096;DHT22;58753;49.440;11.126;2023-03-01T10:50:34;4.37;55.39
71096;DHT22;58753;49.440;11.126;2023-03-01T10:53:04;4.33;55.11
71096;DHT22;58753;49.440;11.126;2023-03-01T10:55:39;4.44;55.07
71096;DHT22;58753;49.440;11.126;2023-03-01T11:00:51;4.74;54.37
71096;DHT22;58753;49.440;11.126;2023-03-01T11:03:25;4.92;54.20
71096;DHT22;58753;49.440;11.126;2023-03-01T11:06:03;5.12;53.92
71096;DHT22;58753;49.440;11.126;2023-03-01T11:08:30;5.22;53.34
71096;DHT22;58753;49.440;11.126;2023-03-01T11:14:00;5.49;53.05
71096;DHT22;58753;49.440;11.126;2023-03-01T11:16:32;5.63;52.54
71096;DHT22;58753;49.440;11.126;2023-03-01T11:19:20;5.87;52.38
71096;DHT22;58753;49.440;11.126;2023-03-01T11:24:42;6.95;52.02
71096;DHT22;58753;49.440;11.126;2023-03-01T11:27:16;7.95;50.59
71096;DHT22;58753;49.440;11.126;2023-03-01T11:29:46;9.04;50.06
71096;DHT22;58753;49.440;11.126;2023-03-01T11:32:16;10.29;49.36
71096;DHT22;58753;49.440;11.126;2023-03-01T11:34:50;11.55;47.31
71096;DHT22;58753;49.440;11.126;2023-03-01T11:37:32;12.63;45.64
71096;DHT22;58753;49.440;11.126;2023-03-01T11:40:16;13.05;42.19
71096;DHT22;58753;49.440;11.126;2023-03-01T11:45:49;14.08;39.68
71096;DHT22;58753;49.440;11.126;2023-03-01T11:50:57;15.02;37.52
71096;DHT22;58753;49.440;11.126;2023-03-01T11:56:26;14.87;35.20
71096;DHT22;58753;49.440;11.126;2023-03-01T12:04:32;14.53;32.93
71096;DHT22;58753;49.440;11.126;2023-03-01T12:26:30;16.38;28.98
71096;DHT22;58753;49.440;11.126;2023-03-01T12:32:20;17.52;27.31
71096;DHT22;58753;49.440;11.126;2023-03-01T12:37:58;17.44;26.90
71096;DHT22;58753;49.440;11.126;2023-03-01T12:40:33;17.04;26.59
71096;DHT22;58753;49.440;11.126;2023-03-01T12:46:20;17.00;26.34
71096;DHT22;58753;49.440;11.126;2023-03-01T12:49:13;16.70;26.21
71096;DHT22;58753;49.440;11.126;2023-03-01T12:51:40;16.63;26.41
71096;DHT22;58753;49.440;11.126;2023-03-01T12:54:31;16.46;26.95
71096;DHT22;58753;49.440;11.126;2023-03-01T12:57:14;15.96;26.35
71096;DHT22;58753;49.440;11.126;2023-03-01T13:10:58;14.87;28.29
71096;DHT22;58753;49.440;11.126;2023-03-01T13:13:26;14.72;28.53
71096;DHT22;58753;49.440;11.126;2023-03-01T13:15:53;14.32;28.58
71096;DHT22;58753;49.440;11.126;2023-03-01T13:20:55;13.46;29.20
71096;DHT22;58753;49.440;11.126;2023-03-01T13:28:55;12.05;30.85
71096;DHT22;58753;49.440;11.126;2023-03-01T13:33:50;11.11;32.47
71096;DHT22;58753;49.440;11.126;2023-03-01T13:39:01;10.69;33.88
71096;DHT22;58753;49.440;11.126;2023-03-01T13:44:34;10.54;35.32
71096;DHT22;58753;49.440;11.126;2023-03-01T13:49:51;10.31;36.10
71096;DHT22;58753;49.440;11.126;2023-03-01T13:55:42;10.53;37.68
71096;DHT22;58753;49.440;11.126;2023-03-01T13:58:25;11.01;37.53
71096;DHT22;58753;49.440;11.126;2023-03-01T14:03:22;10.53;37.42
71096;DHT22;58753;49.440;11.126;2023-03-01T14:06:06;10.31;37.72
71096;DHT22;58753;49.440;11.126;2023-03-01T14:08:33;10.23;38.33
71096;DHT22;58753;49.440;11.126;2023-03-01T14:11:13;10.27;38.61
71096;DHT22;58753;49.440;11.126;2023-03-01T14:13:54;10.37;39.02
71096;DHT22;58753;49.440;11.126;2023-03-01T14:21:45;12.16;38.52
71096;DHT22;58753;49.440;11.126;2023-03-01T14:24:22;12.34;37.69
71096;DHT22;58753;49.440;11.126;2023-03-01T14:26:49;12.45;37.22
71096;DHT22;58753;49.440;11.126;2023-03-01T14:29:35;12.49;37.11
71096;DHT22;58753;49.440;11.126;2023-03-01T14:32:18;12.59;36.76
71096;DHT22;58753;49.440;11.126;2023-03-01T14:34:47;12.69;36.42
71096;DHT22;58753;49.440;11.126;2023-03-01T14:39:44;13.56;35.90
71096;DHT22;58753;49.440;11.126;2023-03-01T14:42:09;14.14;35.76
71096;DHT22;58753;49.440;11.126;2023-03-01T14:44:35;14.48;34.55
71096;DHT22;58753;49.440;11.126;2023-03-01T14:47:03;14.62;33.92
71096;DHT22;58753;49.440;11.126;2023-03-01T14:49:30;14.31;32.52
71096;DHT22;58753;49.440;11.126;2023-03-01T14:52:04;13.89;32.07
71096;DHT22;58753;49.440;11.126;2023-03-01T14:54:41;13.53;32.63
71096;DHT22;58753;49.440;11.126;2023-03-01T14:57:22;12.68;32.77
71096;DHT22;58753;49.440;11.126;2023-03-01T14:59:57;12.04;33.68
71096;DHT22;58753;49.440;11.126;2023-03-01T15:02:24;11.67;34.39
71096;DHT22;58753;49.440;11.126;2023-03-01T15:04:54;11.05;34.79
71096;DHT22;58753;49.440;11.126;2023-03-01T15:07:22;10.88;36.45
71096;DHT22;58753;49.440;11.126;2023-03-01T15:09:51;10.86;36.75
71096;DHT22;58753;49.440;11.126;2023-03-01T15:12:38;11.04;37.59
71096;DHT22;58753;49.440;11.126;2023-03-01T15:17:56;10.21;38.03
71096;DHT22;58753;49.440;11.126;2023-03-01T15:20:25;9.86;38.71
71096;DHT22;58753;49.440;11.126;2023-03-01T15:22:52;9.53;39.29
71096;DHT22;58753;49.440;11.126;2023-03-01T15:25:18;9.21;40.02
71096;DHT22;58753;49.440;11.126;2023-03-01T15:27:48;8.97;40.65
71096;DHT22;58753;49.440;11.126;2023-03-01T15:30:23;8.74;41.37
71096;DHT22;58753;49.440;11.126;2023-03-01T15:35:53;8.33;42.41
71096;DHT22;58753;49.440;11.126;2023-03-01T15:41:48;8.03;43.47
71096;DHT22;58753;49.440;11.126;2023-03-01T15:44:23;7.92;43.85
71096;DHT22;58753;49.440;11.126;2023-03-01T15:46:49;7.83;44.30
71096;DHT22;58753;49.440;11.126;2023-03-01T15:49:40;7.74;44.79
71096;DHT22;58753;49.440;11.126;2023-03-01T15:52:38;7.61;45.06
71096;DHT22;58753;49.440;11.126;2023-03-01T15:55:34;7.57;45.60
71096;DHT22;58753;49.440;11.126;2023-03-01T15:58:01;7.47;45.77
71096;DHT22;58753;49.440;11.126;2023-03-01T16:00:28;7.38;46.18
71096;DHT22;58753;49.440;11.126;2023-03-01T16:02:54;7.31;46.42
71096;DHT22;58753;49.440;11.126;2023-03-01T16:05:31;7.23;46.67
71096;DHT22;58753;49.440;11.126;2023-03-01T16:07:57;7.16;46.92
71096;DHT22;58753;49.440;11.126;2023-03-01T16:10:24;7.08;47.30
71096;DHT22;58753;49.440;11.126;2023-03-01T16:12:50;7.01;47.52
71096;DHT22;58753;49.440;11.126;2023-03-01T16:15:24;6.95;47.84
71096;DHT22;58753;49.440;11.126;2023-03-01T16:17:50;6.89;48.01
71096;DHT22;58753;49.440;11.126;2023-03-01T16:20:17;6.79;48.20
71096;DHT22;58753;49.440;11.126;2023-03-01T16:22:43;6.72;48.42
71096;DHT22;58753;49.440;11.126;2023-03-01T16:25:15;6.65;48.69
71096;DHT22;58753;49.440;11.126;2023-03-01T16:27:49;6.52;48.95
71096;DHT22;58753;49.440;11.126;2023-03-01T16:30:17;6.42;49.23
71096;DHT22;58753;49.440;11.126;2023-03-01T16:32:45;6.34;49.48
71096;DHT22;58753;49.440;11.126;2023-03-01T16:35:13;6.22;49.79
71096;DHT22;58753;49.440;11.126;2023-03-01T16:37:39;6.17;50.01
71096;DHT22;58753;49.440;11.126;2023-03-01T16:40:06;6.10;50.29
71096;DHT22;58753;49.440;11.126;2023-03-01T16:42:36;6.01;50.43
71096;DHT22;58753;49.440;11.126;2023-03-01T16:45:02;5.98;50.80
71096;DHT22;58753;49.440;11.126;2023-03-01T16:47:28;5.95;50.96
71096;DHT22;58753;49.440;11.126;2023-03-01T16:49:54;5.86;51.12
71096;DHT22;58753;49.440;11.126;2023-03-01T16:52:20;5.77;51.29
71096;DHT22;58753;49.440;11.126;2023-03-01T16:54:46;5.70;51.50
71096;DHT22;58753;49.440;11.126;2023-03-01T16:57:12;5.60;51.71
71096;DHT22;58753;49.440;11.126;2023-03-01T16:59:37;5.56;52.05
71096;DHT22;58753;49.440;11.126;2023-03-01T17:02:04;5.47;52.04
71096;DHT22;58753;49.440;11.126;2023-03-01T17:04:31;5.40;52.35
71096;DHT22;58753;49.440;11.126;2023-03-01T17:06:56;5.33;52.82
71096;DHT22;58753;49.440;11.126;2023-03-01T17:09:22;5.30;52.84
71096;DHT22;58753;49.440;11.126;2023-03-01T17:11:48;5.25;53.04
71096;DHT22;58753;49.440;11.126;2023-03-01T17:14:14;5.18;53.16
71096;DHT22;58753;49.440;11.126;2023-03-01T17:16:41;5.09;53.38
71096;DHT22;58753;49.440;11.126;2023-03-01T17:19:07;5.02;53.57
71096;DHT22;58753;49.440;11.126;2023-03-01T17:21:32;4.96;53.76
71096;DHT22;58753;49.440;11.126;2023-03-01T17:23:59;4.92;54.01
71096;DHT22;58753;49.440;11.126;2023-03-01T17:26:24;4.86;54.27
71096;DHT22;58753;49.440;11.126;2023-03-01T17:28:50;4.81;54.48
71096;DHT22;58753;49.440;11.126;2023-03-01T17:31:17;4.76;54.75
71096;DHT22;58753;49.440;11.126;2023-03-01T17:33:42;4.75;54.79
71096;DHT22;58753;49.440;11.126;2023-03-01T17:36:08;4.69;54.86
71096;DHT22;58753;49.440;11.126;2023-03-01T17:38:33;4.61;54.93
71096;DHT22;58753;49.440;11.126;2023-03-01T17:41:00;4.57;55.14
71096;DHT22;58753;49.440;11.126;2023-03-01T17:43:26;4.53;55.38
71096;DHT22;58753;49.440;11.126;2023-03-01T17:45:52;4.47;55.50
71096;DHT22;58753;49.440;11.126;2023-03-01T17:48:19;4.43;55.58